Previous Day
Next Day
Current Day
SHEF ID: FVSO2 FAIRVIEW
STATION TYPE: Mesonet
PRECIP AIR-TEMP WIND-DIRWIND-SPEED REL-HUMID SOLAR-RAD
in F deg mph % W/m2
Raw-Meson Raw-Meson Raw-Meson Raw-Meson Raw-Meson Raw-Meson
(US/Central)
05/11 00:00 0.00 50.18 60.75 6.31 84.25 0.00
05/11 01:00 0.00 49.23 44.25 4.70 86.25 0.00
05/11 02:00 0.00 49.82 59.50 4.14 83.25 0.00
05/11 03:00 0.00 49.73 44.50 3.41 84.50 0.00
05/11 04:00 0.00 49.82 27.00 4.59 85.25 0.00
05/11 05:00 0.00 50.09 38.00 3.74 80.50 0.00
05/11 06:00 0.00 49.73 99.00 3.47 81.25 0.00
05/11 07:00 0.00 49.19 99.50 6.09 85.00 8.00
05/11 08:00 0.06 49.14 32.50 9.51 84.25 18.75
05/11 09:00 0.06 48.42 26.50 8.22 87.75 14.25
05/11 10:00 0.01 48.47 40.00 9.84 90.00 100.50
05/11 11:00 0.04 49.69 37.00 8.05 88.25 95.25
05/11 12:00 0.00 50.05 39.25 6.04 88.25 102.25
05/11 13:00 0.00 51.31 27.75 9.28 85.75 183.50
05/11 14:00 0.00 53.02 41.75 11.52 78.75 240.75
05/11 15:00 0.00 53.91 55.50 10.91 76.25 202.50
05/11 16:00 0.00 55.31 59.00 11.80 72.25 204.25
05/11 17:00 0.00 55.44 54.00 10.34 69.50 170.00
05/11 18:00 0.00 56.39 62.75 8.28 66.00 147.00
05/11 19:00 0.00 56.53 35.75 10.79 65.00 97.50
05/11 20:00 0.00 56.48 37.75 10.29 63.00 128.25
05/11 21:00 0.00 53.33 42.00 5.37 72.75 8.50
05/11 22:00 0.00 50.31 24.25 4.75 78.75 0.00
05/11 23:00 ---- 46.40 333.50 4.53 87.75 0.00